Time;durP1;ratioP1;P1;durP2;ratioP2;P2;SDS_P1;SDS_P2;PMS_P1;PMS_P2;Temp;Humidity;BMP_temperature;BMP_pressure;BME280_temperature;BME280_humidity;BME280_pressure;Samples;Min_cycle;Max_cycle;Signal;HPM_P1;HPM_P2
2022/07/28 00:02:25;;;;;;;;;;;;;;;;;;5072285;28;1076;-69
2022/07/28 00:04:52;;;;;;;;;;;;;;;;;;5072517;28;1309;-68
2022/07/28 00:07:19;;;;;;;;;;;;;;;;;;5072816;28;896;-68
2022/07/28 00:09:45;;;;;;;;;;;;;;;;;;5072658;28;848;-69
2022/07/28 00:12:11;;;;;;;;;;;;;;;;;;5072002;28;901;-68
2022/07/28 00:14:37;;;;;;;;;;;;;;;;;;5072033;28;1473;-68
2022/07/28 00:17:03;;;;;;;;;;;;;;;;;;5071451;28;1203;-69
2022/07/28 00:19:30;;;;;;;;;;;;;;;;;;5072280;28;1972;-68
2022/07/28 00:21:57;;;;;;;;;;;;;;;;;;5071952;28;975;-68
2022/07/28 00:24:24;;;;;;;;;;;;;;;;;;5071980;28;1382;-68
2022/07/28 00:26:50;;;;;;;;;;;;;;;;;;5072253;28;1120;-68
2022/07/28 00:29:16;;;;;;;;;;;;;;;;;;5070813;28;1274;-69
2022/07/28 00:31:43;;;;;;;;;;;;;;;;;;5071648;28;996;-68
2022/07/28 00:34:09;;;;;;;;;;;;;;;;;;5072000;28;1378;-69
2022/07/28 00:36:35;;;;;;;;;;;;;;;;;;5072303;28;1067;-69
2022/07/28 00:39:03;;;;;;;;;;;;;;;;;;5071732;28;1918;-69
2022/07/28 00:41:29;;;;;;;;;;;;;;;;;;5071446;28;1051;-68
2022/07/28 00:43:56;;;;;;;;;;;;;;;;;;5071652;28;1308;-68
2022/07/28 00:46:22;;;;;;;;;;;;;;;;;;5071580;28;1486;-68
2022/07/28 00:48:50;;;;;;;;;;;;;;;;;;5071386;28;845;-68
2022/07/28 00:51:17;;;;;;;;;;;;;;;;;;5071576;28;1063;-68
2022/07/28 00:53:43;;;;;;;;;;;;;;;;;;5071424;28;1309;-69
2022/07/28 00:56:11;;;;;;;;;;;;;;;;;;5071938;28;629;-69
2022/07/28 00:58:37;;;;;;;;;;;;;;;;;;5071367;28;1917;-68
2022/07/28 01:01:04;;;;;;;;;;;;;;;;;;5071056;28;1071;-69
2022/07/28 01:03:30;;;;;;;;;;;;;;;;;;5070999;28;1371;-68
2022/07/28 01:05:56;;;;;;;;;;;;;;;;;;5070207;28;1063;-68
2022/07/28 01:08:24;;;;;;;;;;;;;;;;;;5071337;28;1110;-69
2022/07/28 01:10:52;;;;;;;;;;;;;;;;;;5070867;28;1067;-67
2022/07/28 01:13:21;;;;;;;;;;;;;;;;;;5070933;28;1063;-68
2022/07/28 01:15:48;;;;;;;;;;;;;;;;;;5070818;28;1381;-69
2022/07/28 01:18:15;;;;;;;;;;;;;;;;;;5070871;28;1976;-69
2022/07/28 01:20:44;;;;;;;;;;;;;;;;;;5071136;28;1079;-70
2022/07/28 01:23:13;;;;;;;;;;;;;;;;;;5070491;28;1110;-70
2022/07/28 01:25:44;;;;;;;;;;;;;;;;;;5070944;28;1361;-69
2022/07/28 01:28:13;;;;;;;;;;;;;;;;;;5069767;28;913;-69
2022/07/28 01:30:41;;;;;;;;;;;;;;;;;;5071057;28;822;-69
2022/07/28 01:33:09;;;;;;;;;;;;;;;;;;5070650;28;822;-68
2022/07/28 01:35:37;;;;;;;;;;;;;;;;;;5070642;28;1508;-69
2022/07/28 01:38:04;;;;;;;;;;;;;;;;;;5070807;28;1110;-70
2022/07/28 01:40:32;;;;;;;;;;;;;;;;;;5070776;28;1979;-69
2022/07/28 01:42:59;;;;;;;;;;;;;;;;;;5070551;28;790;-69
2022/07/28 01:45:25;;;;;;;;;;;;;;;;;;5070695;28;1290;-69
2022/07/28 01:47:52;;;;;;;;;;;;;;;;;;5070919;28;964;-70
2022/07/28 01:50:19;;;;;;;;;;;;;;;;;;5070999;28;1122;-68
2022/07/28 01:52:46;;;;;;;;;;;;;;;;;;5070539;28;1076;-69
2022/07/28 01:55:12;;;;;;;;;;;;;;;;;;5070641;28;1331;-70
2022/07/28 01:57:38;;;;;;;;;;;;;;;;;;5070860;28;1079;-69
2022/07/28 02:00:06;;;;;;;;;;;;;;;;;;5070610;28;1914;-69
2022/07/28 02:02:38;;;;;;;;;;;;;;;;;;5070440;28;690;-69
2022/07/28 02:05:06;;;;;;;;;;;;;;;;;;5070494;28;1302;-69
2022/07/28 02:07:32;;;;;;;;;;;;;;;;;;5070803;28;1079;-69
2022/07/28 02:09:58;;;;;;;;;;;;;;;;;;5070535;28;1157;-69
2022/07/28 02:12:24;;;;;;;;;;;;;;;;;;5070359;28;965;-68
2022/07/28 02:14:51;;;;;;;;;;;;;;;;;;5070276;28;1431;-69
2022/07/28 02:17:19;;;;;;;;;;;;;;;;;;5073410;28;1109;-70
2022/07/28 02:19:45;;;;;;;;;;;;;;;;;;5074390;28;1968;-69
2022/07/28 02:22:13;;;;;;;;;;;;;;;;;;5074034;28;1055;-68
2022/07/28 02:24:39;;;;;;;;;;;;;;;;;;5074337;28;1360;-69
2022/07/28 02:27:05;;;;;;;;;;;;;;;;;;5074313;28;1004;-70
2022/07/28 02:29:33;;;;;;;;;;;;;;;;;;5073298;28;1153;-70
2022/07/28 02:32:01;;;;;;;;;;;;;;;;;;5074010;28;928;-69
2022/07/28 02:34:27;;;;;;;;;;;;;;;;;;5074299;28;1348;-69
2022/07/28 02:36:54;;;;;;;;;;;;;;;;;;5086967;22;3662;-76
2022/07/28 02:39:28;;;;;;;;;;;;;;;;;;5072633;28;1896;-74
2022/07/28 02:41:58;;;;;;;;;;;;;;;;;;5072600;28;1454;-75
2022/07/28 02:44:27;;;;;;;;;;;;;;;;;;5072661;28;1233;-76
2022/07/28 02:46:53;;;;;;;;;;;;;;;;;;5074049;28;1331;-75
2022/07/28 02:49:21;;;;;;;;;;;;;;;;;;5074034;28;1918;-75
2022/07/28 02:51:47;;;;;;;;;;;;;;;;;;5073721;28;1059;-75
2022/07/28 02:54:13;;;;;;;;;;;;;;;;;;5072916;28;1088;-75
2022/07/28 02:56:41;;;;;;;;;;;;;;;;;;5073862;28;1332;-75
2022/07/28 02:59:07;;;;;;;;;;;;;;;;;;5072246;28;1357;-76
2022/07/28 03:01:33;;;;;;;;;;;;;;;;;;5071957;28;1311;-75
2022/07/28 03:03:59;;;;;;;;;;;;;;;;;;5072829;28;1314;-74
2022/07/28 03:06:26;;;;;;;;;;;;;;;;;;5073750;28;1342;-75
2022/07/28 03:08:52;;;;;;;;;;;;;;;;;;5073765;28;1969;-76
2022/07/28 03:11:18;;;;;;;;;;;;;;;;;;5073378;28;905;-75
2022/07/28 03:13:46;;;;;;;;;;;;;;;;;;5073441;28;1063;-75
2022/07/28 03:16:12;;;;;;;;;;;;;;;;;;5073672;28;1309;-76
2022/07/28 03:18:39;;;;;;;;;;;;;;;;;;5073013;28;1178;-75
2022/07/28 03:21:05;;;;;;;;;;;;;;;;;;5073510;28;1088;-76
2022/07/28 03:23:32;;;;;;;;;;;;;;;;;;5071821;28;1204;-75
2022/07/28 03:26:00;;;;;;;;;;;;;;;;;;5073533;28;1309;-76
2022/07/28 03:28:26;;;;;;;;;;;;;;;;;;5071734;28;2078;-75
2022/07/28 03:30:56;;;;;;;;;;;;;;;;;;5063489;28;1980;-76
2022/07/28 03:33:22;;;;;;;;;;;;;;;;;;5065172;28;1181;-75
2022/07/28 03:35:50;;;;;;;;;;;;;;;;;;5072936;28;1331;-75
2022/07/28 03:38:18;;;;;;;;;;;;;;;;;;5072907;28;980;-75
2022/07/28 03:40:45;;;;;;;;;;;;;;;;;;5073144;28;1039;-76
2022/07/28 03:43:11;;;;;;;;;;;;;;;;;;5072710;28;909;-75
2022/07/28 03:45:37;;;;;;;;;;;;;;;;;;5072792;28;1383;-75
2022/07/28 03:48:05;;;;;;;;;;;;;;;;;;5071973;28;1390;-75
2022/07/28 03:50:32;;;;;;;;;;;;;;;;;;5073081;28;1918;-74
2022/07/28 03:53:00;;;;;;;;;;;;;;;;;;5072562;28;1109;-75
2022/07/28 03:55:26;;;;;;;;;;;;;;;;;;5072805;28;1341;-75
2022/07/28 03:57:53;;;;;;;;;;;;;;;;;;5072565;28;1122;-74
2022/07/28 04:00:19;;;;;;;;;;;;;;;;;;5073004;28;980;-75
2022/07/28 04:02:45;;;;;;;;;;;;;;;;;;5072359;28;972;-75
2022/07/28 04:05:16;;;;;;;;;;;;;;;;;;5072791;28;1063;-76
2022/07/28 04:07:42;;;;;;;;;;;;;;;;;;5072590;28;1183;-75
2022/07/28 04:10:09;;;;;;;;;;;;;;;;;;5072426;28;1984;-75
2022/07/28 04:12:45;;;;;;;;;;;;;;;;;;5072126;28;1122;-75
2022/07/28 04:15:12;;;;;;;;;;;;;;;;;;5072414;28;702;-75
2022/07/28 04:17:38;;;;;;;;;;;;;;;;;;5070752;28;1534;-75
2022/07/28 04:20:04;;;;;;;;;;;;;;;;;;5072355;28;1075;-75
2022/07/28 04:22:32;;;;;;;;;;;;;;;;;;5071871;28;885;-74
2022/07/28 04:24:58;;;;;;;;;;;;;;;;;;5072259;28;1134;-75
2022/07/28 04:27:24;;;;;;;;;;;;;;;;;;5072187;28;1274;-75
2022/07/28 04:29:50;;;;;;;;;;;;;;;;;;5072074;28;1977;-75
2022/07/28 04:32:17;;;;;;;;;;;;;;;;;;5071734;28;1138;-76
2022/07/28 04:34:43;;;;;;;;;;;;;;;;;;5071773;28;1134;-75
2022/07/28 04:37:09;;;;;;;;;;;;;;;;;;5071643;28;1304;-75
2022/07/28 04:39:36;;;;;;;;;;;;;;;;;;5070838;28;1471;-75
2022/07/28 04:42:03;;;;;;;;;;;;;;;;;;5070202;28;1333;-76
2022/07/28 04:44:29;;;;;;;;;;;;;;;;;;5070630;28;1159;-75
2022/07/28 04:46:55;;;;;;;;;;;;;;;;;;5071582;28;1306;-75
2022/07/28 04:49:21;;;;;;;;;;;;;;;;;;5071680;28;1911;-76
2022/07/28 04:51:49;;;;;;;;;;;;;;;;;;5069894;28;1345;-75
2022/07/28 04:54:15;;;;;;;;;;;;;;;;;;5071517;28;945;-75
2022/07/28 04:56:43;;;;;;;;;;;;;;;;;;5071434;28;1289;-76
2022/07/28 04:59:09;;;;;;;;;;;;;;;;;;5071473;28;750;-74
2022/07/28 05:01:37;;;;;;;;;;;;;;;;;;5071218;28;964;-75
2022/07/28 05:04:04;;;;;;;;;;;;;;;;;;5071497;28;803;-75
2022/07/28 05:06:30;;;;;;;;;;;;;;;;;;5071311;28;1414;-75
2022/07/28 05:08:56;;;;;;;;;;;;;;;;;;5071563;28;775;-75
2022/07/28 05:11:22;;;;;;;;;;;;;;;;;;5070837;28;1910;-75
2022/07/28 05:13:50;;;;;;;;;;;;;;;;;;5071209;28;1094;-75
2022/07/28 05:16:16;;;;;;;;;;;;;;;;;;5071254;28;1309;-75
2022/07/28 05:18:42;;;;;;;;;;;;;;;;;;5071118;28;1008;-75
2022/07/28 05:21:08;;;;;;;;;;;;;;;;;;5068333;28;1477;-75
2022/07/28 05:23:35;;;;;;;;;;;;;;;;;;5070419;28;1609;-73
2022/07/28 05:26:01;;;;;;;;;;;;;;;;;;5067196;28;1430;-72
2022/07/28 05:28:27;;;;;;;;;;;;;;;;;;5066760;28;1386;-73
2022/07/28 05:30:54;;;;;;;;;;;;;;;;;;5070876;28;1914;-74
2022/07/28 05:33:21;;;;;;;;;;;;;;;;;;5070845;28;1107;-74
2022/07/28 05:35:50;;;;;;;;;;;;;;;;;;5070760;28;1290;-75
2022/07/28 05:38:16;;;;;;;;;;;;;;;;;;5069769;28;1293;-74
2022/07/28 05:40:42;;;;;;;;;;;;;;;;;;5071060;28;1060;-75
2022/07/28 05:43:09;;;;;;;;;;;;;;;;;;5069353;28;1530;-75
2022/07/28 05:45:35;;;;;;;;;;;;;;;;;;5069513;28;1470;-74
2022/07/28 05:48:02;;;;;;;;;;;;;;;;;;5058956;28;1315;-73
2022/07/28 05:50:28;;;;;;;;;;;;;;;;;;5069135;28;1930;-74
2022/07/28 05:52:55;;;;;;;;;;;;;;;;;;5068239;28;1189;-75
2022/07/28 05:55:21;;;;;;;;;;;;;;;;;;5069208;28;1394;-74
2022/07/28 05:57:47;;;;;;;;;;;;;;;;;;5070543;28;1145;-74
2022/07/28 06:00:14;;;;;;;;;;;;;;;;;;5070768;28;1345;-74
2022/07/28 06:02:41;;;;;;;;;;;;;;;;;;5069117;28;1421;-74
2022/07/28 06:05:09;;;;;;;;;;;;;;;;;;5071216;28;1281;-75
2022/07/28 06:07:35;;;;;;;;;;;;;;;;;;5070307;28;1296;-75
2022/07/28 06:10:01;;;;;;;;;;;;;;;;;;5069488;28;2431;-74
2022/07/28 06:12:28;;;;;;;;;;;;;;;;;;5068752;28;1235;-75
2022/07/28 06:14:54;;;;;;;;;;;;;;;;;;5070367;28;1216;-75
2022/07/28 06:17:20;;;;;;;;;;;;;;;;;;5068148;28;1325;-75
2022/07/28 06:19:46;;;;;;;;;;;;;;;;;;5067128;28;1453;-75
2022/07/28 06:22:14;;;;;;;;;;;;;;;;;;5068482;28;1413;-74
2022/07/28 06:24:41;;;;;;;;;;;;;;;;;;5070299;28;1200;-74
2022/07/28 06:27:07;;;;;;;;;;;;;;;;;;5070679;28;1363;-75
2022/07/28 06:29:33;;;;;;;;;;;;;;;;;;5069958;28;878;-75
2022/07/28 06:31:59;;;;;;;;;;;;;;;;;;5068817;28;1922;-74
2022/07/28 06:34:25;;;;;;;;;;;;;;;;;;5070226;28;1197;-73
2022/07/28 06:36:51;;;;;;;;;;;;;;;;;;5068734;28;1444;-74
2022/07/28 06:39:19;;;;;;;;;;;;;;;;;;5068984;28;1444;-74
2022/07/28 06:41:45;;;;;;;;;;;;;;;;;;5068443;28;1481;-75
2022/07/28 06:44:12;;;;;;;;;;;;;;;;;;5069095;28;1452;-77
2022/07/28 06:46:38;;;;;;;;;;;;;;;;;;5068605;28;1800;-74
2022/07/28 06:49:04;;;;;;;;;;;;;;;;;;5067738;28;1075;-75
2022/07/28 06:51:31;;;;;;;;;;;;;;;;;;5079142;28;1914;-74
2022/07/28 06:53:57;;;;;;;;;;;;;;;;;;5069150;28;1063;-73
2022/07/28 06:56:24;;;;;;;;;;;;;;;;;;5069657;28;1294;-73
2022/07/28 06:58:50;;;;;;;;;;;;;;;;;;5068371;28;1377;-72
2022/07/28 07:01:17;;;;;;;;;;;;;;;;;;5069234;28;1169;-74
2022/07/28 07:03:43;;;;;;;;;;;;;;;;;;5069492;28;1464;-72
2022/07/28 07:06:09;;;;;;;;;;;;;;;;;;5072825;28;1469;-73
2022/07/28 07:08:36;;;;;;;;;;;;;;;;;;5072955;28;1106;-75
2022/07/28 07:11:02;;;;;;;;;;;;;;;;;;5072069;28;1923;-73
2022/07/28 07:13:29;;;;;;;;;;;;;;;;;;5070863;28;1210;-75
2022/07/28 07:15:56;;;;;;;;;;;;;;;;;;5072902;28;1309;-72
2022/07/28 07:18:22;;;;;;;;;;;;;;;;;;5069638;28;901;-73
2022/07/28 07:20:48;;;;;;;;;;;;;;;;;;5069933;28;1468;-72
2022/07/28 07:23:14;;;;;;;;;;;;;;;;;;5071215;28;1627;-73
2022/07/28 07:25:41;;;;;;;;;;;;;;;;;;5072351;28;1435;-71
2022/07/28 07:28:07;;;;;;;;;;;;;;;;;;5072816;28;952;-72
2022/07/28 07:30:34;;;;;;;;;;;;;;;;;;5071140;28;1977;-72
2022/07/28 07:33:01;;;;;;;;;;;;;;;;;;5079933;28;1201;-73
2022/07/28 07:35:27;;;;;;;;;;;;;;;;;;5071593;28;1457;-75
2022/07/28 07:37:54;;;;;;;;;;;;;;;;;;5070777;28;1458;-72
2022/07/28 07:40:21;;;;;;;;;;;;;;;;;;5064506;28;1130;-73
2022/07/28 07:42:47;;;;;;;;;;;;;;;;;;5071666;28;1102;-74
2022/07/28 07:45:13;;;;;;;;;;;;;;;;;;5072043;28;1078;-74
2022/07/28 07:47:41;;;;;;;;;;;;;;;;;;5072079;28;1418;-73
2022/07/28 07:50:07;;;;;;;;;;;;;;;;;;5071988;28;1410;-76
2022/07/28 07:52:34;;;;;;;;;;;;;;;;;;5071755;28;1910;-71
2022/07/28 07:55:00;;;;;;;;;;;;;;;;;;5072360;28;1248;-73
2022/07/28 07:57:26;;;;;;;;;;;;;;;;;;5070660;28;1409;-74
2022/07/28 07:59:52;;;;;;;;;;;;;;;;;;5071002;28;1802;-73
2022/07/28 08:02:18;;;;;;;;;;;;;;;;;;5071274;28;1260;-74
2022/07/28 08:04:46;;;;;;;;;;;;;;;;;;5070363;28;1484;-73
2022/07/28 08:07:12;;;;;;;;;;;;;;;;;;5071669;28;1474;-73
2022/07/28 08:09:38;;;;;;;;;;;;;;;;;;5071909;28;938;-72
2022/07/28 08:12:05;;;;;;;;;;;;;;;;;;5070128;28;1914;-73
2022/07/28 08:14:31;;;;;;;;;;;;;;;;;;5071632;28;1295;-72
2022/07/28 08:16:58;;;;;;;;;;;;;;;;;;5071807;28;1404;-72
2022/07/28 08:19:24;;;;;;;;;;;;;;;;;;5071152;28;1370;-72
2022/07/28 08:21:52;;;;;;;;;;;;;;;;;;5069985;28;1381;-73
2022/07/28 08:24:18;;;;;;;;;;;;;;;;;;5070291;28;1407;-73
2022/07/28 08:26:44;;;;;;;;;;;;;;;;;;5068979;28;1430;-74
2022/07/28 08:29:10;;;;;;;;;;;;;;;;;;5070010;28;1369;-73
2022/07/28 08:31:36;;;;;;;;;;;;;;;;;;5070688;28;1971;-74
2022/07/28 08:34:03;;;;;;;;;;;;;;;;;;5071531;28;1118;-72
2022/07/28 08:38:59;;;;;;;;;;;;;;;;;;4989303;28;1559;-70
2022/07/28 08:41:26;;;;;;;;;;;;;;;;;;5010194;28;1120;-69
2022/07/28 08:43:52;;;;;;;;;;;;;;;;;;5011159;28;1068;-70
2022/07/28 08:46:19;;;;;;;;;;;;;;;;;;5010682;28;1099;-68
2022/07/28 08:48:46;;;;;;;;;;;;;;;;;;5004640;28;1478;-67
2022/07/28 08:51:12;;;;;;;;;;;;;;;;;;5002597;28;1979;-68
2022/07/28 08:53:39;;;;;;;;;;;;;;;;;;5010434;28;1480;-68
2022/07/28 08:56:07;;;;;;;;;;;;;;;;;;5002595;28;1452;-70
2022/07/28 08:58:34;;;;;;;;;;;;;;;;;;4997919;28;1263;-69
2022/07/28 09:01:00;;;;;;;;;;;;;;;;;;4991283;28;874;-67
2022/07/28 09:03:27;;;;;;;;;;;;;;;;;;4991484;28;1117;-68
2022/07/28 09:05:53;;;;;;;;;;;;;;;;;;5004939;28;1659;-69
2022/07/28 09:08:19;;;;;;;;;;;;;;;;;;5002716;28;1381;-69
2022/07/28 09:10:45;;;;;;;;;;;;;;;;;;4991044;28;1978;-68
2022/07/28 09:13:13;;;;;;;;;;;;;;;;;;4998949;28;1433;-69
2022/07/28 09:15:39;;;;;;;;;;;;;;;;;;5005605;28;1168;-68
2022/07/28 09:18:05;;;;;;;;;;;;;;;;;;5010275;28;1491;-69
2022/07/28 09:20:32;;;;;;;;;;;;;;;;;;5010093;28;1323;-69
2022/07/28 09:22:58;;;;;;;;;;;;;;;;;;5010179;28;1264;-69
2022/07/28 09:25:25;;;;;;;;;;;;;;;;;;5005086;28;1492;-69
2022/07/28 09:27:51;;;;;;;;;;;;;;;;;;5003501;28;1368;-68
2022/07/28 09:30:23;;;;;;;;;;;;;;;;;;5010707;28;1063;-69
2022/07/28 09:32:49;;;;;;;;;;;;;;;;;;5008165;28;1914;-68
2022/07/28 09:35:19;;;;;;;;;;;;;;;;;;5003647;28;1444;-69
2022/07/28 09:37:45;;;;;;;;;;;;;;;;;;5008873;28;1414;-69
2022/07/28 09:40:11;;;;;;;;;;;;;;;;;;5010594;28;1219;-68
2022/07/28 09:42:44;;;;;;;;;;;;;;;;;;4998244;28;1460;-68
2022/07/28 09:45:11;;;;;;;;;;;;;;;;;;5008896;28;1092;-69
2022/07/28 09:47:39;;;;;;;;;;;;;;;;;;5010545;28;1389;-68
2022/07/28 09:50:05;;;;;;;;;;;;;;;;;;5009679;28;1434;-69
2022/07/28 09:52:32;;;;;;;;;;;;;;;;;;5009844;28;1969;-68
2022/07/28 09:54:59;;;;;;;;;;;;;;;;;;5009450;28;1131;-68
2022/07/28 09:57:26;;;;;;;;;;;;;;;;;;5010417;28;1294;-69
2022/07/28 09:59:52;;;;;;;;;;;;;;;;;;5009951;28;1068;-68
2022/07/28 10:02:22;;;;;;;;;;;;;;;;;;5009444;28;1401;-68
2022/07/28 10:04:50;;;;;;;;;;;;;;;;;;4994588;28;1115;-68
2022/07/28 10:07:16;;;;;;;;;;;;;;;;;;4995697;28;1498;-68
2022/07/28 10:09:43;;;;;;;;;;;;;;;;;;5010179;28;1178;-69
2022/07/28 10:12:15;;;;;;;;;;;;;;;;;;5010009;28;1910;-68
2022/07/28 10:14:41;;;;;;;;;;;;;;;;;;5003814;28;1413;-68
2022/07/28 10:17:08;;;;;;;;;;;;;;;;;;5005686;28;1402;-69
2022/07/28 10:19:34;;;;;;;;;;;;;;;;;;5003900;28;1195;-69
2022/07/28 10:22:02;;;;;;;;;;;;;;;;;;5009667;28;1277;-68
2022/07/28 10:24:28;;;;;;;;;;;;;;;;;;5010240;28;994;-69
2022/07/28 10:26:54;;;;;;;;;;;;;;;;;;5010171;28;1302;-69
2022/07/28 10:29:21;;;;;;;;;;;;;;;;;;5009946;28;782;-69
2022/07/28 10:31:49;;;;;;;;;;;;;;;;;;5006441;28;1973;-69
2022/07/28 10:34:17;;;;;;;;;;;;;;;;;;5008126;28;1362;-69
2022/07/28 10:36:44;;;;;;;;;;;;;;;;;;5001963;28;1534;-69
2022/07/28 10:39:13;;;;;;;;;;;;;;;;;;5012530;28;1155;-69
2022/07/28 10:41:40;;;;;;;;;;;;;;;;;;5005039;28;1460;-69
2022/07/28 10:44:07;;;;;;;;;;;;;;;;;;5011794;28;987;-69
2022/07/28 10:46:33;;;;;;;;;;;;;;;;;;5013676;28;1379;-70
2022/07/28 10:49:00;;;;;;;;;;;;;;;;;;5012429;28;1064;-69
2022/07/28 10:51:26;;;;;;;;;;;;;;;;;;4999288;28;1989;-69
2022/07/28 10:53:53;;;;;;;;;;;;;;;;;;5002018;28;1460;-70
2022/07/28 10:56:22;;;;;;;;;;;;;;;;;;4991723;28;1402;-70
2022/07/28 10:58:49;;;;;;;;;;;;;;;;;;5008289;28;1393;-72
2022/07/28 11:01:30;;;;;;;;;;;;;;;;;;5012565;28;1468;-69
2022/07/28 11:03:56;;;;;;;;;;;;;;;;;;4979998;28;1899;-69
2022/07/28 11:06:23;;;;;;;;;;;;;;;;;;5013211;28;1148;-69
2022/07/28 11:08:51;;;;;;;;;;;;;;;;;;5012842;28;617;-69
2022/07/28 11:11:19;;;;;;;;;;;;;;;;;;5009384;28;1950;-68
2022/07/28 11:13:47;;;;;;;;;;;;;;;;;;5002648;28;1603;-69
2022/07/28 11:16:20;;;;;;;;;;;;;;;;;;5013428;28;1245;-69
2022/07/28 11:19:06;;;;;;;;;;;;;;;;;;5004998;28;1567;-68
2022/07/28 11:21:32;;;;;;;;;;;;;;;;;;5001516;28;1449;-69
2022/07/28 11:23:58;;;;;;;;;;;;;;;;;;5004834;28;1158;-69
2022/07/28 11:26:26;;;;;;;;;;;;;;;;;;5012677;28;1312;-69
2022/07/28 11:29:13;;;;;;;;;;;;;;;;;;5011987;28;1421;-70
2022/07/28 11:31:58;;;;;;;;;;;;;;;;;;4997198;28;1895;-69
2022/07/28 11:34:25;;;;;;;;;;;;;;;;;;5003646;28;1346;-70
2022/07/28 11:36:58;;;;;;;;;;;;;;;;;;5008242;28;1426;-70
2022/07/28 11:39:25;;;;;;;;;;;;;;;;;;5005315;28;1140;-70
2022/07/28 11:41:51;;;;;;;;;;;;;;;;;;5004940;28;1460;-70
2022/07/28 11:44:23;;;;;;;;;;;;;;;;;;5006370;28;1396;-70
2022/07/28 11:46:50;;;;;;;;;;;;;;;;;;5011884;28;1496;-70
2022/07/28 11:49:23;;;;;;;;;;;;;;;;;;5012194;28;1060;-70
2022/07/28 11:52:07;;;;;;;;;;;;;;;;;;5010541;28;1915;-70
2022/07/28 11:54:34;;;;;;;;;;;;;;;;;;5006550;28;1408;-70
2022/07/28 11:57:01;;;;;;;;;;;;;;;;;;4991606;28;1472;-71
2022/07/28 11:59:27;;;;;;;;;;;;;;;;;;5003785;28;1429;-70
2022/07/28 12:01:53;;;;;;;;;;;;;;;;;;5011629;28;1131;-70
2022/07/28 12:04:20;;;;;;;;;;;;;;;;;;5011274;28;1055;-70
2022/07/28 12:06:46;;;;;;;;;;;;;;;;;;5007359;28;1397;-69
2022/07/28 12:09:14;;;;;;;;;;;;;;;;;;5002297;28;1437;-70
2022/07/28 12:11:40;;;;;;;;;;;;;;;;;;5006134;28;2264;-70
2022/07/28 12:14:07;;;;;;;;;;;;;;;;;;5012631;28;787;-70
2022/07/28 12:16:34;;;;;;;;;;;;;;;;;;5010809;28;1473;-70
2022/07/28 12:19:00;;;;;;;;;;;;;;;;;;5017486;28;1317;-70
2022/07/28 12:21:35;;;;;;;;;;;;;;;;;;5011222;28;1264;-70
2022/07/28 12:24:01;;;;;;;;;;;;;;;;;;5011226;28;1307;-71
2022/07/28 12:26:31;;;;;;;;;;;;;;;;;;5011491;28;1468;-70
2022/07/28 12:28:58;;;;;;;;;;;;;;;;;;5011240;28;1212;-70
2022/07/28 12:31:28;;;;;;;;;;;;;;;;;;5011308;28;1308;-70
2022/07/28 12:33:54;;;;;;;;;;;;;;;;;;5012203;28;1911;-70
2022/07/28 12:36:22;;;;;;;;;;;;;;;;;;5011799;28;1120;-70
2022/07/28 12:38:49;;;;;;;;;;;;;;;;;;4994001;28;1369;-71
2022/07/28 12:41:16;;;;;;;;;;;;;;;;;;5011148;28;1079;-70
2022/07/28 12:43:49;;;;;;;;;;;;;;;;;;5011404;28;1064;-70
2022/07/28 12:46:19;;;;;;;;;;;;;;;;;;5010017;28;1476;-70
2022/07/28 12:48:47;;;;;;;;;;;;;;;;;;4991923;28;1361;-71
2022/07/28 12:51:28;;;;;;;;;;;;;;;;;;4991969;28;1083;-70
2022/07/28 12:53:54;;;;;;;;;;;;;;;;;;4991387;28;1918;-71
2022/07/28 12:56:21;;;;;;;;;;;;;;;;;;4992072;28;791;-71
2022/07/28 12:58:47;;;;;;;;;;;;;;;;;;4991544;28;1416;-71
2022/07/28 13:01:14;;;;;;;;;;;;;;;;;;4990993;28;1056;-71
2022/07/28 13:03:45;;;;;;;;;;;;;;;;;;4991415;28;2039;-71
2022/07/28 13:06:12;;;;;;;;;;;;;;;;;;4991879;28;1076;-72
2022/07/28 13:08:39;;;;;;;;;;;;;;;;;;4991360;28;1361;-71
2022/07/28 13:11:05;;;;;;;;;;;;;;;;;;4991341;28;799;-71
2022/07/28 13:13:32;;;;;;;;;;;;;;;;;;4991222;28;894;-71
2022/07/28 13:16:11;;;;;;;;;;;;;;;;;;4989652;28;2221;-71
2022/07/28 13:18:41;;;;;;;;;;;;;;;;;;4991541;28;1440;-71
2022/07/28 13:21:08;;;;;;;;;;;;;;;;;;4991563;28;1064;-69
2022/07/28 13:23:34;;;;;;;;;;;;;;;;;;4989719;28;1912;-70
2022/07/28 13:26:00;;;;;;;;;;;;;;;;;;4991616;28;910;-70
2022/07/28 13:28:27;;;;;;;;;;;;;;;;;;4991021;28;1446;-71
2022/07/28 13:30:53;;;;;;;;;;;;;;;;;;4991083;28;784;-71
2022/07/28 13:33:19;;;;;;;;;;;;;;;;;;4990922;28;1080;-71
2022/07/28 13:35:48;;;;;;;;;;;;;;;;;;4991400;28;1036;-70
2022/07/28 13:38:15;;;;;;;;;;;;;;;;;;4991135;28;1399;-71
2022/07/28 13:40:41;;;;;;;;;;;;;;;;;;4991074;28;1072;-71
2022/07/28 13:43:07;;;;;;;;;;;;;;;;;;4990483;28;1975;-71
2022/07/28 13:45:33;;;;;;;;;;;;;;;;;;4989902;28;1213;-71
2022/07/28 13:48:00;;;;;;;;;;;;;;;;;;4989640;28;1346;-71
2022/07/28 13:50:26;;;;;;;;;;;;;;;;;;4990029;28;1373;-71
2022/07/28 13:52:53;;;;;;;;;;;;;;;;;;4990091;28;1060;-71
2022/07/28 13:55:19;;;;;;;;;;;;;;;;;;4989862;28;1611;-71
2022/07/28 13:57:46;;;;;;;;;;;;;;;;;;4992586;28;1552;-71
2022/07/28 14:00:13;;;;;;;;;;;;;;;;;;4981727;28;1510;-71
2022/07/28 14:02:40;;;;;;;;;;;;;;;;;;5003513;28;1910;-72
2022/07/28 14:05:06;;;;;;;;;;;;;;;;;;5004978;28;1333;-71
2022/07/28 14:07:32;;;;;;;;;;;;;;;;;;5002037;28;1415;-71
2022/07/28 14:10:00;;;;;;;;;;;;;;;;;;5008703;28;1480;-71
2022/07/28 14:12:26;;;;;;;;;;;;;;;;;;5003713;28;1195;-71
2022/07/28 14:14:52;;;;;;;;;;;;;;;;;;5014267;28;1413;-73
2022/07/28 14:17:21;;;;;;;;;;;;;;;;;;5012139;28;1445;-72
2022/07/28 14:19:47;;;;;;;;;;;;;;;;;;5012549;28;1454;-72
2022/07/28 14:22:14;;;;;;;;;;;;;;;;;;5001467;28;1350;-72
2022/07/28 14:24:40;;;;;;;;;;;;;;;;;;5006272;28;1910;-71
2022/07/28 14:27:07;;;;;;;;;;;;;;;;;;5003919;28;1650;-71
2022/07/28 14:29:33;;;;;;;;;;;;;;;;;;5013487;28;1561;-71
2022/07/28 14:32:00;;;;;;;;;;;;;;;;;;5005030;28;1142;-71
2022/07/28 14:34:26;;;;;;;;;;;;;;;;;;5012724;28;1325;-71
2022/07/28 14:36:52;;;;;;;;;;;;;;;;;;5005575;28;1432;-72
2022/07/28 14:39:18;;;;;;;;;;;;;;;;;;5011693;28;1329;-72
2022/07/28 14:41:45;;;;;;;;;;;;;;;;;;4991166;28;1417;-71
2022/07/28 14:44:12;;;;;;;;;;;;;;;;;;5001419;28;1984;-71
2022/07/28 14:46:38;;;;;;;;;;;;;;;;;;5010895;28;1409;-71
2022/07/28 14:49:05;;;;;;;;;;;;;;;;;;5034600;22;3495;-75
2022/07/28 14:51:31;;;;;;;;;;;;;;;;;;5089071;28;1522;-77
2022/07/28 14:53:57;;;;;;;;;;;;;;;;;;5093196;28;1634;-76
2022/07/28 14:56:23;;;;;;;;;;;;;;;;;;5087161;28;1659;-75
2022/07/28 14:58:49;;;;;;;;;;;;;;;;;;5089288;28;1414;-76
2022/07/28 15:01:17;;;;;;;;;;;;;;;;;;5064115;28;1490;-75
2022/07/28 15:03:43;;;;;;;;;;;;;;;;;;5088254;28;1971;-76
2022/07/28 15:06:09;;;;;;;;;;;;;;;;;;5079992;28;1470;-76
2022/07/28 15:08:35;;;;;;;;;;;;;;;;;;5091387;28;1411;-77
2022/07/28 15:11:01;;;;;;;;;;;;;;;;;;5057519;28;1239;-77
2022/07/28 15:13:28;;;;;;;;;;;;;;;;;;5068613;28;2166;-76
2022/07/28 15:15:54;;;;;;;;;;;;;;;;;;5068072;28;1986;-76
2022/07/28 15:18:21;;;;;;;;;;;;;;;;;;5072975;28;1127;-76
2022/07/28 15:20:49;;;;;;;;;;;;;;;;;;5078010;28;1406;-75
2022/07/28 15:23:15;;;;;;;;;;;;;;;;;;5092474;28;1910;-77
2022/07/28 15:25:42;;;;;;;;;;;;;;;;;;5092993;28;1071;-76
2022/07/28 15:28:09;;;;;;;;;;;;;;;;;;5070893;28;1358;-76
2022/07/28 15:30:35;;;;;;;;;;;;;;;;;;5068565;28;1881;-76
2022/07/28 15:33:01;;;;;;;;;;;;;;;;;;5079879;28;1168;-75
2022/07/28 15:35:28;;;;;;;;;;;;;;;;;;5073203;28;1209;-76
2022/07/28 15:37:55;;;;;;;;;;;;;;;;;;5067363;28;1504;-76
2022/07/28 15:40:21;;;;;;;;;;;;;;;;;;5062876;28;1520;-75
2022/07/28 15:42:47;;;;;;;;;;;;;;;;;;5069727;28;1965;-75
2022/07/28 15:45:13;;;;;;;;;;;;;;;;;;5068844;28;2159;-76
2022/07/28 15:47:40;;;;;;;;;;;;;;;;;;5050689;28;1387;-75
2022/07/28 15:50:06;;;;;;;;;;;;;;;;;;5081174;28;1333;-75
2022/07/28 15:52:33;;;;;;;;;;;;;;;;;;5087213;28;1349;-75
2022/07/28 15:55:00;;;;;;;;;;;;;;;;;;5083706;28;1362;-75
2022/07/28 15:57:26;;;;;;;;;;;;;;;;;;5083078;28;1343;-75
2022/07/28 15:59:53;;;;;;;;;;;;;;;;;;5078470;28;1389;-75
2022/07/28 16:02:19;;;;;;;;;;;;;;;;;;5074399;28;1382;-76
2022/07/28 16:04:45;;;;;;;;;;;;;;;;;;5078859;28;1917;-76
2022/07/28 16:07:22;;;;;;;;;;;;;;;;;;5081564;28;1350;-76
2022/07/28 16:09:49;;;;;;;;;;;;;;;;;;5079788;28;1398;-76
2022/07/28 16:12:15;;;;;;;;;;;;;;;;;;5071903;28;1011;-76
2022/07/28 16:14:42;;;;;;;;;;;;;;;;;;5069377;28;1846;-74
2022/07/28 16:17:08;;;;;;;;;;;;;;;;;;5070220;28;1047;-75
2022/07/28 16:19:35;;;;;;;;;;;;;;;;;;5077147;28;1435;-75
2022/07/28 16:22:01;;;;;;;;;;;;;;;;;;5069320;28;1419;-75
2022/07/28 16:24:28;;;;;;;;;;;;;;;;;;5090264;28;1914;-74
2022/07/28 16:26:55;;;;;;;;;;;;;;;;;;5076423;28;1375;-74
2022/07/28 16:29:22;;;;;;;;;;;;;;;;;;5078005;28;1375;-75
2022/07/28 16:31:48;;;;;;;;;;;;;;;;;;5083397;28;1164;-75
2022/07/28 16:34:14;;;;;;;;;;;;;;;;;;5092086;28;1071;-76
2022/07/28 16:36:40;;;;;;;;;;;;;;;;;;5092148;28;707;-75
2022/07/28 16:39:07;;;;;;;;;;;;;;;;;;5081779;28;1399;-75
2022/07/28 16:41:33;;;;;;;;;;;;;;;;;;5075893;28;1415;-75
2022/07/28 16:44:00;;;;;;;;;;;;;;;;;;5074481;28;1910;-75
2022/07/28 16:46:27;;;;;;;;;;;;;;;;;;5053908;28;905;-75
2022/07/28 16:48:53;;;;;;;;;;;;;;;;;;5071796;28;1403;-76
2022/07/28 16:51:19;;;;;;;;;;;;;;;;;;5074776;28;1523;-75
2022/07/28 16:53:45;;;;;;;;;;;;;;;;;;5064610;28;1204;-76
2022/07/28 16:56:16;;;;;;;;;;;;;;;;;;5089908;28;1533;-74
2022/07/28 16:58:42;;;;;;;;;;;;;;;;;;5071388;28;2186;-75
2022/07/28 17:01:10;;;;;;;;;;;;;;;;;;5069548;28;1399;-76
2022/07/28 17:03:36;;;;;;;;;;;;;;;;;;5065886;28;1914;-76
2022/07/28 17:06:02;;;;;;;;;;;;;;;;;;5063516;28;1225;-76
2022/07/28 17:08:29;;;;;;;;;;;;;;;;;;5100879;28;1399;-73